createdAt,value
2016-10-12T00:00:59.232Z,0
2016-10-12T00:01:59.340Z,0
2016-10-12T00:02:59.383Z,0
2016-10-12T00:03:59.420Z,0
2016-10-12T00:04:59.476Z,0
2016-10-12T00:05:59.641Z,0
2016-10-12T00:06:59.598Z,0
2016-10-12T00:07:59.645Z,0
2016-10-12T00:08:59.708Z,0
2016-10-12T00:09:59.749Z,0
2016-10-12T00:10:59.798Z,0
2016-10-12T00:11:59.876Z,0
2016-10-12T00:12:59.946Z,0
2016-10-12T00:13:59.944Z,0
2016-10-12T00:15:00.033Z,0
2016-10-12T00:16:00.096Z,0
2016-10-12T00:17:00.154Z,0
2016-10-12T00:18:00.209Z,0
2016-10-12T00:19:00.260Z,0
2016-10-12T00:20:00.285Z,0
2016-10-12T00:21:00.351Z,0
2016-10-12T00:22:00.416Z,0
2016-10-12T00:23:00.493Z,0
2016-10-12T00:24:00.529Z,0
2016-10-12T00:25:00.563Z,0
2016-10-12T00:26:00.609Z,0
2016-10-12T00:27:00.672Z,0
2016-10-12T00:28:00.768Z,0
2016-10-12T00:29:00.811Z,0
2016-10-12T00:30:00.858Z,0
2016-10-12T00:31:00.922Z,0
2016-10-12T00:32:00.956Z,0
2016-10-12T00:33:01.011Z,0
2016-10-12T00:34:01.082Z,0
2016-10-12T00:35:01.123Z,0
2016-10-12T00:36:01.199Z,0
2016-10-12T00:37:01.259Z,0
2016-10-12T00:38:01.316Z,0
2016-10-12T00:39:01.354Z,0
2016-10-12T00:40:01.420Z,0
2016-10-12T00:41:01.470Z,0
2016-10-12T00:42:01.531Z,0
2016-10-12T00:43:01.602Z,0
2016-10-12T00:44:01.645Z,0
2016-10-12T00:45:01.692Z,0
2016-10-12T00:46:01.732Z,0
2016-10-12T00:47:01.793Z,0
2016-10-12T00:48:01.847Z,0
2016-10-12T00:49:01.915Z,0
2016-10-12T00:50:01.968Z,0
2016-10-12T00:51:02.038Z,0
2016-10-12T00:52:02.052Z,0
2016-10-12T00:53:02.105Z,0
2016-10-12T00:54:02.166Z,0
2016-10-12T00:55:02.242Z,0
2016-10-12T00:56:02.272Z,0
2016-10-12T00:57:02.355Z,0
2016-10-12T00:58:02.403Z,0
2016-10-12T00:59:02.443Z,0
2016-10-12T01:00:02.526Z,0
2016-10-12T01:01:02.595Z,0
2016-10-12T01:02:02.636Z,0
2016-10-12T01:03:02.688Z,0
2016-10-12T01:04:02.749Z,0
2016-10-12T01:05:02.792Z,0
2016-10-12T01:06:02.844Z,0
2016-10-12T01:07:02.913Z,0
2016-10-12T01:08:02.973Z,0
2016-10-12T01:09:03.037Z,0
2016-10-12T01:10:03.076Z,0
2016-10-12T01:11:03.108Z,0
2016-10-12T01:12:03.194Z,0
2016-10-12T01:13:03.236Z,0
2016-10-12T01:14:03.303Z,0
2016-10-12T01:15:03.354Z,0
2016-10-12T01:16:03.390Z,0
2016-10-12T01:17:03.481Z,0
2016-10-12T01:18:03.510Z,0
2016-10-12T01:19:03.563Z,0
2016-10-12T01:20:03.619Z,0
2016-10-12T01:21:03.686Z,0
2016-10-12T01:22:03.757Z,0
2016-10-12T01:23:03.789Z,0
2016-10-12T01:24:03.831Z,0
2016-10-12T01:25:03.920Z,0
2016-10-12T01:26:03.963Z,0
2016-10-12T01:27:03.995Z,0
2016-10-12T01:28:04.042Z,0
2016-10-12T01:29:04.112Z,0
2016-10-12T01:30:04.186Z,0
2016-10-12T01:31:04.252Z,0
2016-10-12T01:32:04.280Z,0
2016-10-12T01:33:04.353Z,0
2016-10-12T01:34:04.406Z,0
2016-10-12T01:35:04.453Z,0
2016-10-12T01:36:04.500Z,0
2016-10-12T01:37:04.572Z,0
2016-10-12T01:38:04.636Z,0
2016-10-12T01:39:04.666Z,0
2016-10-12T01:40:04.726Z,0
2016-10-12T01:41:04.772Z,0
2016-10-12T01:42:04.811Z,0
2016-10-12T01:43:04.867Z,0
2016-10-12T01:44:04.955Z,0
2016-10-12T01:45:04.983Z,0
2016-10-12T01:46:05.347Z,0
2016-10-12T01:47:05.128Z,0
2016-10-12T01:48:05.177Z,0
2016-10-12T01:49:05.244Z,0
2016-10-12T01:50:05.253Z,0
2016-10-12T01:51:05.340Z,0
2016-10-12T01:52:05.392Z,0
2016-10-12T01:53:05.438Z,0
2016-10-12T01:54:05.519Z,0
2016-10-12T01:55:05.577Z,0
2016-10-12T01:56:05.614Z,0
2016-10-12T01:57:05.671Z,0
2016-10-12T01:58:05.728Z,0
2016-10-12T01:59:05.776Z,0
2016-10-12T02:00:05.835Z,0
2016-10-12T02:01:05.893Z,0
2016-10-12T02:02:05.913Z,0
2016-10-12T02:03:05.996Z,0
2016-10-12T02:04:06.023Z,0
2016-10-12T02:05:06.100Z,0
2016-10-12T02:06:06.154Z,0
2016-10-12T02:07:06.213Z,0
2016-10-12T02:08:06.280Z,0
2016-10-12T02:09:06.313Z,0
2016-10-12T02:10:06.369Z,0
2016-10-12T02:11:06.444Z,0
2016-10-12T02:12:06.479Z,0
2016-10-12T02:13:06.533Z,0
2016-10-12T02:14:06.591Z,0
2016-10-12T02:15:06.676Z,0
2016-10-12T02:16:06.720Z,0
2016-10-12T02:17:06.778Z,0
2016-10-12T02:18:06.831Z,0
2016-10-12T02:19:06.870Z,0
2016-10-12T02:20:07.246Z,0
2016-10-12T02:21:06.965Z,0
2016-10-12T02:22:07.017Z,0
2016-10-12T02:23:07.086Z,0
2016-10-12T02:24:07.140Z,0
2016-10-12T02:25:07.190Z,0
2016-10-12T02:26:07.263Z,0
2016-10-12T02:27:07.310Z,0
2016-10-12T02:28:07.379Z,0
2016-10-12T02:29:07.402Z,0
2016-10-12T02:30:07.477Z,0
2016-10-12T02:31:07.531Z,0
2016-10-12T02:32:07.599Z,0
2016-10-12T02:33:07.655Z,0
2016-10-12T02:34:07.689Z,0
2016-10-12T02:35:07.731Z,0
2016-10-12T02:36:07.819Z,0
2016-10-12T02:37:07.874Z,0
2016-10-12T02:38:07.903Z,0
2016-10-12T02:39:07.978Z,0
2016-10-12T02:40:08.023Z,0
2016-10-12T02:41:08.095Z,0
2016-10-12T02:42:08.143Z,0
2016-10-12T02:43:08.187Z,0
2016-10-12T02:44:08.266Z,0
2016-10-12T02:45:08.307Z,0
2016-10-12T02:46:08.360Z,0
2016-10-12T02:47:08.419Z,0
2016-10-12T02:48:08.488Z,0
2016-10-12T02:49:08.529Z,0
2016-10-12T02:50:08.599Z,0
2016-10-12T02:51:08.661Z,0
2016-10-12T02:52:08.715Z,0
2016-10-12T02:53:08.726Z,0
2016-10-12T02:54:08.818Z,0
2016-10-12T02:55:08.849Z,0
2016-10-12T02:56:08.899Z,0
2016-10-12T02:57:08.959Z,0
2016-10-12T02:58:09.044Z,0
2016-10-12T02:59:09.090Z,0
2016-10-12T03:00:09.125Z,0
2016-10-12T03:01:09.193Z,0
2016-10-12T03:02:09.215Z,0
2016-10-12T03:03:09.319Z,0
2016-10-12T03:04:09.669Z,0
2016-10-12T03:05:09.390Z,0
2016-10-12T03:06:09.477Z,0
2016-10-12T03:07:09.529Z,0
2016-10-12T03:08:09.597Z,0
2016-10-12T03:09:09.602Z,0
2016-10-12T03:10:09.678Z,0
2016-10-12T03:11:09.757Z,0
2016-10-12T03:12:09.776Z,0
2016-10-12T03:13:09.854Z,0
2016-10-12T03:14:09.874Z,0
2016-10-12T03:15:09.938Z,0
2016-10-12T03:16:10.005Z,0
2016-10-12T03:17:10.056Z,0
2016-10-12T03:18:10.142Z,0
2016-10-12T03:19:10.185Z,0
2016-10-12T03:20:10.238Z,0
2016-10-12T03:21:10.297Z,0
2016-10-12T03:22:10.319Z,0
2016-10-12T03:23:10.423Z,0
2016-10-12T03:24:10.459Z,0
2016-10-12T03:25:10.516Z,0
2016-10-12T03:26:10.546Z,0
2016-10-12T03:27:10.605Z,0
2016-10-12T03:28:10.662Z,0
2016-10-12T03:29:10.711Z,0
2016-10-12T03:30:10.805Z,0
2016-10-12T03:31:11.161Z,0
2016-10-12T03:32:10.878Z,0
2016-10-12T03:33:10.937Z,0
2016-10-12T03:34:10.994Z,0
2016-10-12T03:35:11.049Z,0
2016-10-12T03:36:11.123Z,0
2016-10-12T03:37:11.158Z,0
2016-10-12T03:38:11.217Z,0
2016-10-12T03:39:11.603Z,0
2016-10-12T03:40:11.341Z,0
2016-10-12T03:41:11.388Z,0
2016-10-12T03:42:11.430Z,0
2016-10-12T03:43:11.487Z,0
2016-10-12T03:44:11.542Z,0
2016-10-12T03:45:11.612Z,0
2016-10-12T03:46:11.670Z,0
2016-10-12T03:47:11.724Z,0
2016-10-12T03:48:12.388Z,0
2016-10-12T03:49:12.442Z,0
2016-10-12T03:50:11.867Z,0
2016-10-12T03:51:11.925Z,0
2016-10-12T03:52:12.302Z,0
2016-10-12T03:53:12.044Z,0
2016-10-12T03:54:12.396Z,0
2016-10-12T03:55:12.448Z,0
2016-10-12T03:56:12.218Z,0
2016-10-12T03:57:12.269Z,0
2016-10-12T03:58:12.340Z,0
2016-10-12T03:59:12.384Z,0
2016-10-12T04:00:12.419Z,0
2016-10-12T04:01:12.484Z,0
2016-10-12T04:02:12.527Z,0
2016-10-12T04:03:12.602Z,0
2016-10-12T04:04:12.965Z,0
2016-10-12T04:05:12.714Z,0
2016-10-12T04:06:12.965Z,0
2016-10-12T04:07:12.805Z,0
2016-10-12T04:08:12.884Z,0
2016-10-12T04:09:12.931Z,0
2016-10-12T04:10:13.001Z,0
2016-10-12T04:11:13.028Z,0
2016-10-12T04:12:13.106Z,0
2016-10-12T04:13:13.157Z,0
2016-10-12T04:14:13.189Z,0
2016-10-12T04:15:13.283Z,0
2016-10-12T04:16:13.633Z,0
2016-10-12T04:17:13.363Z,0
2016-10-12T04:18:14.046Z,0
2016-10-12T04:19:13.486Z,0
2016-10-12T04:20:13.560Z,0
2016-10-12T04:21:13.575Z,0
2016-10-12T04:22:13.632Z,0
2016-10-12T04:23:13.696Z,0
2016-10-12T04:24:13.750Z,0
2016-10-12T04:25:13.802Z,0
2016-10-12T04:26:13.882Z,0
2016-10-12T04:27:13.891Z,0
2016-10-12T04:28:13.984Z,0
2016-10-12T04:29:14.035Z,0
2016-10-12T04:30:14.085Z,0
2016-10-12T04:31:14.107Z,0
2016-10-12T04:32:14.204Z,0
2016-10-12T04:33:14.235Z,0
2016-10-12T04:34:14.290Z,0
2016-10-12T04:35:14.355Z,0
2016-10-12T04:36:14.410Z,0
2016-10-12T04:37:14.452Z,0
2016-10-12T04:38:14.518Z,0
2016-10-12T04:39:14.563Z,0
2016-10-12T04:40:14.669Z,0
2016-10-12T04:41:14.709Z,0
2016-10-12T04:42:14.739Z,0
2016-10-12T04:43:14.808Z,0
2016-10-12T04:44:14.861Z,0
2016-10-12T04:45:14.903Z,0
2016-10-12T04:46:14.937Z,0
2016-10-12T04:47:15.007Z,0
2016-10-12T04:48:15.063Z,0
2016-10-12T04:49:15.150Z,0
2016-10-12T04:50:15.212Z,0
2016-10-12T04:51:15.247Z,0
2016-10-12T04:52:15.288Z,0
2016-10-12T04:53:15.333Z,0
2016-10-12T04:54:15.405Z,0
2016-10-12T04:55:15.453Z,0
2016-10-12T04:56:15.509Z,0
2016-10-12T04:57:15.549Z,0
2016-10-12T04:58:15.618Z,0
2016-10-12T04:59:15.670Z,0
2016-10-12T05:00:15.743Z,0
2016-10-12T05:01:15.977Z,0
2016-10-12T05:02:15.835Z,0
2016-10-12T05:03:15.879Z,0
2016-10-12T05:04:15.977Z,0
2016-10-12T05:05:16.011Z,0
2016-10-12T05:06:16.067Z,0
2016-10-12T05:07:16.221Z,0
2016-10-12T05:08:16.165Z,0
2016-10-12T05:09:16.232Z,0
2016-10-12T05:10:16.292Z,0
2016-10-12T05:11:16.332Z,0
2016-10-12T05:12:16.393Z,0
2016-10-12T05:13:16.471Z,0
2016-10-12T05:14:16.518Z,0
2016-10-12T05:15:16.551Z,0
2016-10-12T05:16:16.600Z,0
2016-10-12T05:17:16.658Z,0
2016-10-12T05:18:16.723Z,0
2016-10-12T05:19:16.802Z,0
2016-10-12T05:20:16.815Z,0
2016-10-12T05:21:16.894Z,0
2016-10-12T05:22:16.922Z,0
2016-10-12T05:23:17.010Z,0
2016-10-12T05:24:17.031Z,0
2016-10-12T05:25:17.120Z,0
2016-10-12T05:26:17.182Z,0
2016-10-12T05:27:17.208Z,0
2016-10-12T05:28:17.491Z,0
2016-10-12T05:29:17.522Z,0
2016-10-12T05:30:17.392Z,0
2016-10-12T05:31:17.425Z,0
2016-10-12T05:32:17.481Z,0
2016-10-12T05:33:17.553Z,0
2016-10-12T05:34:17.593Z,0
2016-10-12T05:35:17.666Z,0
2016-10-12T05:36:17.740Z,0
2016-10-12T05:37:17.761Z,0
2016-10-12T05:38:18.156Z,0
2016-10-12T05:39:17.853Z,0
2016-10-12T05:40:17.921Z,0
2016-10-12T05:41:17.965Z,0
2016-10-12T05:42:18.041Z,0
2016-10-12T05:43:18.115Z,0
2016-10-12T05:44:18.126Z,0
2016-10-12T05:45:18.181Z,0
2016-10-12T05:46:18.265Z,0
2016-10-12T05:47:18.289Z,0
2016-10-12T05:48:18.381Z,0
2016-10-12T05:49:18.451Z,0
2016-10-12T05:50:18.463Z,0
2016-10-12T05:51:18.525Z,0
2016-10-12T05:52:18.586Z,0
2016-10-12T05:53:18.621Z,0
2016-10-12T05:54:18.712Z,0
2016-10-12T05:55:18.780Z,0
2016-10-12T05:56:19.029Z,0
2016-10-12T05:57:19.071Z,0
2016-10-12T05:58:18.912Z,0
2016-10-12T05:59:18.955Z,0
2016-10-12T06:00:19.028Z,0
2016-10-12T06:01:19.299Z,0
2016-10-12T06:02:19.167Z,0
2016-10-12T06:03:19.188Z,0
2016-10-12T06:04:19.288Z,0
2016-10-12T06:05:19.314Z,5
2016-10-12T06:06:19.379Z,5
2016-10-12T06:07:19.425Z,5
2016-10-12T06:08:19.468Z,5
2016-10-12T06:09:19.507Z,5
2016-10-12T06:10:19.586Z,5
2016-10-12T06:11:19.631Z,5
2016-10-12T06:12:19.704Z,5
2016-10-12T06:13:19.751Z,5
2016-10-12T06:14:19.806Z,5
2016-10-12T06:15:19.850Z,5
2016-10-12T06:16:19.920Z,5
2016-10-12T06:17:20.270Z,5
2016-10-12T06:18:20.037Z,5
2016-10-12T06:19:20.085Z,5
2016-10-12T06:20:20.136Z,5
2016-10-12T06:21:20.479Z,5
2016-10-12T06:22:20.224Z,5
2016-10-12T06:23:35.224Z,5
2016-10-12T06:24:21.096Z,5
2016-10-12T06:25:20.610Z,10
2016-10-12T06:26:20.467Z,10
2016-10-12T06:27:20.531Z,10
2016-10-12T06:28:20.590Z,10
2016-10-12T06:29:20.642Z,10
2016-10-12T06:30:20.679Z,10
2016-10-12T06:31:20.731Z,10
2016-10-12T06:32:20.782Z,10
2016-10-12T06:33:20.851Z,10
2016-10-12T06:34:21.222Z,10
2016-10-12T06:35:20.969Z,10
2016-10-12T06:36:21.034Z,10
2016-10-12T06:37:21.059Z,10
2016-10-12T06:38:21.136Z,10
2016-10-12T06:39:21.185Z,10
2016-10-12T06:40:21.271Z,10
2016-10-12T06:41:21.318Z,10
2016-10-12T06:42:21.672Z,10
2016-10-12T06:43:21.413Z,15
2016-10-12T06:44:21.465Z,15
2016-10-12T06:45:21.522Z,15
2016-10-12T06:46:21.577Z,15
2016-10-12T06:47:21.610Z,15
2016-10-12T06:48:21.692Z,15
2016-10-12T06:49:21.759Z,15
2016-10-12T06:50:21.820Z,15
2016-10-12T06:51:21.855Z,15
2016-10-12T06:52:22.108Z,15
2016-10-12T06:53:22.239Z,15
2016-10-12T06:54:22.214Z,15
2016-10-12T06:55:22.069Z,15
2016-10-12T06:56:22.115Z,15
2016-10-12T06:57:22.151Z,15
2016-10-12T06:58:22.230Z,15
2016-10-12T06:59:22.271Z,15
2016-10-12T07:00:22.343Z,15
2016-10-12T07:01:22.392Z,15
2016-10-12T07:02:22.475Z,15
2016-10-12T07:03:22.499Z,15
2016-10-12T07:04:22.540Z,15
2016-10-12T07:05:22.595Z,15
2016-10-12T07:06:22.990Z,15
2016-10-12T07:07:22.719Z,20
2016-10-12T07:08:22.780Z,20
2016-10-12T07:09:22.852Z,20
2016-10-12T07:10:23.191Z,20
2016-10-12T07:11:22.948Z,20
2016-10-12T07:12:23.028Z,20
2016-10-12T07:13:23.066Z,25
2016-10-12T07:14:23.145Z,25
2016-10-12T07:15:23.184Z,25
2016-10-12T07:16:23.244Z,25
2016-10-12T07:17:23.285Z,25
2016-10-12T07:18:23.353Z,30
2016-10-12T07:19:23.612Z,30
2016-10-12T07:20:23.448Z,35
2016-10-12T07:21:23.493Z,30
2016-10-12T07:22:23.538Z,30
2016-10-12T07:23:23.641Z,35
2016-10-12T07:24:23.672Z,30
2016-10-12T07:25:23.737Z,35
2016-10-12T07:26:23.784Z,35
2016-10-12T07:27:23.837Z,35
2016-10-12T07:28:23.910Z,45
2016-10-12T07:29:23.967Z,55
2016-10-12T07:30:24.034Z,45
2016-10-12T07:31:24.057Z,40
2016-10-12T07:32:24.121Z,40
2016-10-12T07:33:24.200Z,40
2016-10-12T07:34:24.233Z,40
2016-10-12T07:35:24.295Z,50
2016-10-12T07:36:24.329Z,55
2016-10-12T07:37:24.398Z,55
2016-10-12T07:38:24.454Z,40
2016-10-12T07:39:24.494Z,40
2016-10-12T07:40:24.553Z,40
2016-10-12T07:41:24.613Z,40
2016-10-12T07:42:24.672Z,40
2016-10-12T07:43:24.730Z,40
2016-10-12T07:44:24.777Z,45
2016-10-12T07:45:24.836Z,45
2016-10-12T07:46:24.907Z,40
2016-10-12T07:47:24.939Z,40
2016-10-12T07:48:25.167Z,40
2016-10-12T07:49:25.082Z,45
2016-10-12T07:50:25.092Z,45
2016-10-12T07:51:25.145Z,50
2016-10-12T07:52:25.201Z,50
2016-10-12T07:53:25.296Z,50
2016-10-12T07:54:25.325Z,50
2016-10-12T07:55:25.377Z,60
2016-10-12T07:56:25.436Z,55
2016-10-12T07:57:25.506Z,60
2016-10-12T07:58:25.532Z,60
2016-10-12T07:59:25.590Z,70
2016-10-12T08:00:25.666Z,85
2016-10-12T08:01:25.691Z,75
2016-10-12T08:02:25.771Z,80
2016-10-12T08:03:25.838Z,75
2016-10-12T08:04:25.886Z,65
2016-10-12T08:05:25.938Z,60
2016-10-12T08:06:26.308Z,95
2016-10-12T08:07:26.058Z,65
2016-10-12T08:08:26.097Z,45
2016-10-12T08:09:26.163Z,65
2016-10-12T08:10:26.203Z,60
2016-10-12T08:11:26.252Z,60
2016-10-12T08:12:26.336Z,50
2016-10-12T08:13:26.387Z,55
2016-10-12T08:14:26.746Z,60
2016-10-12T08:15:26.508Z,55
2016-10-12T08:16:26.763Z,55
2016-10-12T08:17:26.577Z,60
2016-10-12T08:18:26.666Z,60
2016-10-12T08:19:26.715Z,65
2016-10-12T08:20:26.764Z,65
2016-10-12T08:21:26.818Z,55
2016-10-12T08:22:26.884Z,60
2016-10-12T08:23:26.931Z,55
2016-10-12T08:24:26.991Z,60
2016-10-12T08:25:27.056Z,55
2016-10-12T08:26:27.389Z,55
2016-10-12T08:27:27.149Z,65
2016-10-12T08:28:27.207Z,60
2016-10-12T08:29:27.254Z,60
2016-10-12T08:30:27.329Z,60
2016-10-12T08:31:27.385Z,70
2016-10-12T08:32:27.451Z,60
2016-10-12T08:33:27.500Z,60
2016-10-12T08:34:27.536Z,60
2016-10-12T08:35:27.587Z,65
2016-10-12T08:36:27.664Z,65
2016-10-12T08:37:27.684Z,60
2016-10-12T08:38:27.766Z,65
2016-10-12T08:39:27.809Z,60
2016-10-12T08:40:27.870Z,65
2016-10-12T08:41:27.952Z,75
2016-10-12T08:42:28.001Z,65
2016-10-12T08:43:28.016Z,65
2016-10-12T08:44:28.099Z,60
2016-10-12T08:45:28.170Z,70
2016-10-12T08:46:28.213Z,65
2016-10-12T08:47:28.271Z,100
2016-10-12T08:48:28.327Z,80
2016-10-12T08:49:28.366Z,80
2016-10-12T08:50:28.436Z,80
2016-10-12T08:51:28.675Z,80
2016-10-12T08:52:28.542Z,75
2016-10-12T08:53:28.589Z,80
2016-10-12T08:54:28.655Z,85
2016-10-12T08:55:28.715Z,95
2016-10-12T08:56:28.765Z,100
2016-10-12T08:57:28.816Z,80
2016-10-12T08:58:28.872Z,75
2016-10-12T08:59:28.923Z,90
2016-10-12T09:00:28.960Z,90
2016-10-12T09:01:29.042Z,85
2016-10-12T09:02:29.097Z,85
2016-10-12T09:03:29.151Z,85
2016-10-12T09:04:29.224Z,85
2016-10-12T09:05:29.272Z,90
2016-10-12T09:06:29.318Z,85
2016-10-12T09:07:29.351Z,90
2016-10-12T09:08:29.435Z,95
2016-10-12T09:09:29.484Z,95
2016-10-12T09:10:29.529Z,100
2016-10-12T09:11:29.616Z,90
2016-10-12T09:12:29.623Z,90
2016-10-12T09:13:29.712Z,90
2016-10-12T09:14:29.767Z,90
2016-10-12T09:15:29.810Z,95
2016-10-12T09:16:29.879Z,75
2016-10-12T09:17:29.937Z,65
2016-10-12T09:18:29.969Z,85
2016-10-12T09:19:30.026Z,80
2016-10-12T09:20:30.072Z,80
2016-10-12T09:21:30.148Z,75
2016-10-12T09:22:30.178Z,70
2016-10-12T09:23:30.245Z,75
2016-10-12T09:24:30.339Z,70
2016-10-12T09:25:30.371Z,50
2016-10-12T09:26:30.709Z,85
2016-10-12T09:27:30.484Z,70
2016-10-12T09:28:30.831Z,65
2016-10-12T09:29:30.594Z,65
2016-10-12T09:30:30.940Z,65
2016-10-12T09:31:30.710Z,65
2016-10-12T09:32:30.756Z,65
2016-10-12T09:33:30.806Z,65
2016-10-12T09:34:30.894Z,65
2016-10-12T09:35:30.933Z,65
2016-10-12T09:36:30.989Z,65
2016-10-12T09:37:31.045Z,65
2016-10-12T09:38:31.090Z,65
2016-10-12T09:39:31.169Z,65
2016-10-12T09:40:31.200Z,65
2016-10-12T09:41:31.262Z,65
2016-10-12T09:42:31.297Z,65
2016-10-12T09:43:31.369Z,65
2016-10-12T09:44:31.442Z,65
2016-10-12T09:45:31.468Z,65
2016-10-12T09:46:31.553Z,65
2016-10-12T09:47:31.567Z,70
2016-10-12T09:48:31.658Z,70
2016-10-12T09:49:31.712Z,70
2016-10-12T09:50:31.767Z,70
2016-10-12T09:51:31.819Z,70
2016-10-12T09:52:31.851Z,70
2016-10-12T09:53:31.929Z,70
2016-10-12T09:54:31.966Z,70
2016-10-12T09:55:32.053Z,70
2016-10-12T09:56:32.082Z,70
2016-10-12T09:57:32.181Z,70
2016-10-12T09:58:32.196Z,70
2016-10-12T09:59:32.285Z,70
2016-10-12T10:00:32.288Z,70
2016-10-12T10:01:32.366Z,70
2016-10-12T10:02:32.438Z,70
2016-10-12T10:03:32.486Z,70
2016-10-12T10:04:32.547Z,70
2016-10-12T10:05:32.592Z,75
2016-10-12T10:06:32.654Z,75
2016-10-12T10:07:32.696Z,75
2016-10-12T10:08:32.772Z,75
2016-10-12T10:09:32.837Z,75
2016-10-12T10:10:32.865Z,75
2016-10-12T10:11:32.921Z,80
2016-10-12T10:12:32.964Z,95
2016-10-12T10:13:33.044Z,100
2016-10-12T10:14:33.089Z,85
2016-10-12T10:15:33.137Z,95
2016-10-12T10:16:33.212Z,90
2016-10-12T10:17:33.270Z,90
2016-10-12T10:18:33.333Z,75
2016-10-12T10:19:33.394Z,115
2016-10-12T10:20:33.429Z,115
2016-10-12T10:21:33.492Z,95
2016-10-12T10:22:33.558Z,85
2016-10-12T10:23:33.590Z,85
2016-10-12T10:24:33.648Z,70
2016-10-12T10:25:33.715Z,75
2016-10-12T10:26:33.794Z,70
2016-10-12T10:27:33.830Z,65
2016-10-12T10:28:33.900Z,80
2016-10-12T10:29:33.963Z,90
2016-10-12T10:30:34.023Z,90
2016-10-12T10:31:34.051Z,90
2016-10-12T10:32:34.117Z,85
2016-10-12T10:33:34.173Z,95
2016-10-12T10:34:34.212Z,125
2016-10-12T10:35:34.284Z,115
2016-10-12T10:36:34.370Z,85
2016-10-12T10:37:34.392Z,125
2016-10-12T10:38:34.429Z,110
2016-10-12T10:39:34.490Z,95
2016-10-12T10:40:34.551Z,70
2016-10-12T10:41:34.603Z,65
2016-10-12T10:42:34.658Z,70
2016-10-12T10:43:34.719Z,75
2016-10-12T10:44:34.773Z,75
2016-10-12T10:45:34.832Z,75
2016-10-12T10:46:34.887Z,70
2016-10-12T10:47:35.259Z,60
2016-10-12T10:48:34.999Z,65
2016-10-12T10:49:35.058Z,75
2016-10-12T10:50:35.111Z,65
2016-10-12T10:51:35.179Z,60
2016-10-12T10:52:35.206Z,65
2016-10-12T10:53:35.314Z,75
2016-10-12T10:54:35.328Z,75
2016-10-12T10:55:35.403Z,95
2016-10-12T10:56:35.451Z,95
2016-10-12T10:57:35.523Z,85
2016-10-12T10:58:35.568Z,85
2016-10-12T10:59:35.592Z,125
2016-10-12T11:00:35.998Z,195
2016-10-12T11:01:35.726Z,100
2016-10-12T11:02:35.793Z,90
2016-10-12T11:03:35.861Z,70
2016-10-12T11:04:35.905Z,65
2016-10-12T11:05:35.971Z,70
2016-10-12T11:06:36.015Z,75
2016-10-12T11:07:36.069Z,130
2016-10-12T11:08:36.118Z,355
2016-10-12T11:09:36.174Z,200
2016-10-12T11:10:36.240Z,95
2016-10-12T11:11:36.316Z,95
2016-10-12T11:12:36.349Z,80
2016-10-12T11:13:36.372Z,70
2016-10-12T11:14:36.468Z,65
2016-10-12T11:15:36.490Z,80
2016-10-12T11:16:36.573Z,80
2016-10-12T11:17:36.643Z,70
2016-10-12T11:18:36.680Z,85
2016-10-12T11:19:36.739Z,110
2016-10-12T11:20:36.766Z,125
2016-10-12T11:21:36.839Z,135
2016-10-12T11:22:36.897Z,140
2016-10-12T11:23:36.964Z,290
2016-10-12T11:24:37.019Z,90
2016-10-12T11:25:37.078Z,95
2016-10-12T11:26:37.133Z,90
2016-10-12T11:27:37.196Z,105
2016-10-12T11:28:37.243Z,165
2016-10-12T11:29:37.303Z,65
2016-10-12T11:30:37.344Z,80
2016-10-12T11:31:37.400Z,105
2016-10-12T11:32:37.449Z,110
2016-10-12T11:33:37.514Z,125
2016-10-12T11:34:37.675Z,275
2016-10-12T11:35:37.635Z,510
2016-10-12T11:36:37.678Z,650
2016-10-12T11:37:37.732Z,1040
2016-10-12T11:38:37.827Z,640
2016-10-12T11:39:37.845Z,520
2016-10-12T11:40:37.895Z,195
2016-10-12T11:41:37.978Z,170
2016-10-12T11:42:38.016Z,90
2016-10-12T11:43:38.086Z,85
2016-10-12T11:44:38.130Z,115
2016-10-12T11:45:38.201Z,95
2016-10-12T11:46:38.247Z,100
2016-10-12T11:47:38.332Z,110
2016-10-12T11:48:38.373Z,90
2016-10-12T11:49:38.426Z,90
2016-10-12T11:50:38.447Z,75
2016-10-12T11:51:38.515Z,70
2016-10-12T11:52:38.609Z,65
2016-10-12T11:53:38.641Z,65
2016-10-12T11:54:38.710Z,65
2016-10-12T11:55:38.774Z,65
2016-10-12T11:56:38.838Z,80
2016-10-12T11:57:38.884Z,90
2016-10-12T11:58:38.924Z,60
2016-10-12T11:59:38.982Z,60
2016-10-12T12:00:39.026Z,60
2016-10-12T12:01:39.091Z,60
2016-10-12T12:02:39.158Z,55
2016-10-12T12:03:39.213Z,60
2016-10-12T12:04:39.256Z,65
2016-10-12T12:05:39.329Z,60
2016-10-12T12:06:39.380Z,60
2016-10-12T12:07:39.428Z,65
2016-10-12T12:08:39.469Z,65
2016-10-12T12:09:39.542Z,70
2016-10-12T12:10:39.623Z,70
2016-10-12T12:11:39.672Z,70
2016-10-12T12:12:39.687Z,70
2016-10-12T12:13:39.758Z,70
2016-10-12T12:14:39.825Z,75
2016-10-12T12:15:39.891Z,65
2016-10-12T12:16:39.911Z,55
2016-10-12T12:17:40.018Z,55
2016-10-12T12:18:40.043Z,55
2016-10-12T12:19:40.087Z,55
2016-10-12T12:20:40.358Z,55
2016-10-12T12:21:40.203Z,55
2016-10-12T12:22:40.276Z,55
2016-10-12T12:23:40.323Z,55
2016-10-12T12:24:40.396Z,55
2016-10-12T12:25:40.425Z,60
2016-10-12T12:26:40.493Z,60
2016-10-12T12:27:40.543Z,60
2016-10-12T12:28:40.583Z,60
2016-10-12T12:29:40.652Z,55
2016-10-12T12:30:40.746Z,55
2016-10-12T12:31:40.808Z,55
2016-10-12T12:32:40.839Z,55
2016-10-12T12:33:40.914Z,55
2016-10-12T12:34:40.942Z,55
2016-10-12T12:35:41.401Z,60
2016-10-12T12:36:41.045Z,60
2016-10-12T12:37:41.102Z,50
2016-10-12T12:38:41.180Z,50
2016-10-12T12:39:41.863Z,55
2016-10-12T12:40:41.293Z,55
2016-10-12T12:41:41.330Z,55
2016-10-12T12:42:41.405Z,55
2016-10-12T12:43:41.732Z,60
2016-10-12T12:44:41.490Z,55
2016-10-12T12:45:41.551Z,55
2016-10-12T12:46:41.598Z,60
2016-10-12T12:47:41.652Z,65
2016-10-12T12:48:41.736Z,65
2016-10-12T12:49:41.784Z,60
2016-10-12T12:50:41.867Z,60
2016-10-12T12:51:41.879Z,55
2016-10-12T12:52:41.978Z,55
2016-10-12T12:53:41.999Z,50
2016-10-12T12:54:42.059Z,50
2016-10-12T12:55:42.119Z,50
2016-10-12T12:56:42.171Z,50
2016-10-12T12:57:42.212Z,50
2016-10-12T12:58:42.279Z,50
2016-10-12T12:59:42.351Z,50
2016-10-12T13:00:42.403Z,50
2016-10-12T13:01:42.461Z,50
2016-10-12T13:02:42.508Z,50
2016-10-12T13:03:42.573Z,45
2016-10-12T13:04:42.621Z,50
2016-10-12T13:05:42.678Z,50
2016-10-12T13:06:42.732Z,55
2016-10-12T13:07:43.082Z,50
2016-10-12T13:08:43.128Z,45
2016-10-12T13:09:42.897Z,45
2016-10-12T13:10:42.969Z,45
2016-10-12T13:11:43.039Z,45
2016-10-12T13:12:43.100Z,50
2016-10-12T13:13:43.134Z,55
2016-10-12T13:14:43.488Z,50
2016-10-12T13:15:43.258Z,45
2016-10-12T13:16:43.316Z,45
2016-10-12T13:17:43.342Z,45
2016-10-12T13:18:43.725Z,60
2016-10-12T13:19:43.474Z,50
2016-10-12T13:20:44.129Z,50
2016-10-12T13:21:43.566Z,50
2016-10-12T13:22:43.646Z,50
2016-10-12T13:23:43.704Z,50
2016-10-12T13:24:43.773Z,45
2016-10-12T13:25:44.103Z,45
2016-10-12T13:26:43.836Z,45
2016-10-12T13:27:43.928Z,45
2016-10-12T13:28:43.954Z,45
2016-10-12T13:29:44.016Z,50
2016-10-12T13:30:44.061Z,50
2016-10-12T13:31:44.132Z,55
2016-10-12T13:32:44.198Z,50
2016-10-12T13:33:44.235Z,65
2016-10-12T13:34:44.311Z,85
2016-10-12T13:35:44.383Z,75
2016-10-12T13:36:44.444Z,70
2016-10-12T13:37:44.791Z,65
2016-10-12T13:38:44.843Z,65
2016-10-12T13:39:44.586Z,70
2016-10-12T13:40:44.651Z,85
2016-10-12T13:41:44.714Z,70
2016-10-12T13:42:44.783Z,75
2016-10-12T13:43:44.804Z,80
2016-10-12T13:44:44.864Z,65
2016-10-12T13:45:44.948Z,55
2016-10-12T13:46:44.985Z,50
2016-10-12T13:47:45.032Z,75
2016-10-12T13:48:45.101Z,60
2016-10-12T13:49:45.151Z,55
2016-10-12T13:50:45.181Z,60
2016-10-12T13:51:45.259Z,70
2016-10-12T13:52:45.324Z,105
2016-10-12T13:53:45.393Z,70
2016-10-12T13:54:45.428Z,55
2016-10-12T13:55:45.814Z,55
2016-10-12T13:56:45.533Z,60
2016-10-12T13:57:45.601Z,55
2016-10-12T13:58:45.657Z,55
2016-10-12T13:59:46.641Z,50
2016-10-12T14:00:45.763Z,45
2016-10-12T14:01:46.140Z,60
2016-10-12T14:02:45.893Z,65
2016-10-12T14:03:45.957Z,70
2016-10-12T14:04:45.996Z,70
2016-10-12T14:05:46.361Z,80
2016-10-12T14:06:46.123Z,75
2016-10-12T14:07:46.156Z,70
2016-10-12T14:08:46.227Z,70
2016-10-12T14:09:46.865Z,70
2016-10-12T14:10:46.313Z,65
2016-10-12T14:11:46.386Z,65
2016-10-12T14:12:46.428Z,70
2016-10-12T14:13:46.496Z,70
2016-10-12T14:14:46.562Z,80
2016-10-12T14:15:46.593Z,85
2016-10-12T14:16:46.658Z,80
2016-10-12T14:17:46.744Z,75
2016-10-12T14:18:46.757Z,75
2016-10-12T14:19:46.830Z,60
2016-10-12T14:20:46.903Z,65
2016-10-12T14:21:46.934Z,65
2016-10-12T14:22:47.102Z,75
2016-10-12T14:23:47.049Z,65
2016-10-12T14:24:47.094Z,50
2016-10-12T14:25:47.147Z,60
2016-10-12T14:26:47.248Z,50
2016-10-12T14:27:47.321Z,35
2016-10-12T14:28:47.329Z,25